GRZ538 Details

Departure: Deadhorse Airport (PASC)
Arrival: Wiley Post-Will Rogers Memorial Airport (PABR)
Route: SCC OKIKE SEJYY BRW


Current Weather Information
PASC 260153Z 11007KT 10SM CLR M08/M12 A3038 RMK AO2 SLP288 T10831117
PABR 260153Z 10008KT 10SM OVC011 M09/M11 A3035 RMK AO2 SLP279 T10941111